Time;durP1;ratioP1;P1;durP2;ratioP2;P2;SDS_P1;SDS_P2;PMS_P1;PMS_P2;Temp;Humidity;BMP_temperature;BMP_pressure;BME280_temperature;BME280_humidity;BME280_pressure;Samples;Min_cycle;Max_cycle;Signal;HPM_P1;HPM_P2
2022/05/12 00:00:49;;;;;;;11.60;2.72;;;17.80;90.30;;;;;;4996633;28;20014;-60
2022/05/12 00:03:17;;;;;;;5.63;1.77;;;17.80;90.50;;;;;;4978332;28;20399;-59
2022/05/12 00:05:43;;;;;;;11.45;1.75;;;17.80;90.80;;;;;;4994881;28;20030;-60
2022/05/12 00:08:09;;;;;;;10.65;1.90;;;17.70;91.30;;;;;;4999963;28;20022;-59
2022/05/12 00:10:35;;;;;;;10.13;2.08;;;17.70;91.70;;;;;;5002569;28;20045;-61
2022/05/12 00:13:01;;;;;;;4.90;1.60;;;17.50;92.10;;;;;;5009152;28;20030;-60
2022/05/12 00:15:30;;;;;;;7.72;2.22;;;17.50;92.40;;;;;;5007513;28;20062;-62
2022/05/12 00:17:56;;;;;;;8.48;1.60;;;17.40;94.20;;;;;;5012205;28;20431;-61
2022/05/12 00:20:23;;;;;;;9.73;1.60;;;17.30;94.40;;;;;;5001061;28;20104;-61
2022/05/12 00:22:49;;;;;;;5.75;1.55;;;17.40;94.30;;;;;;5007967;28;20042;-61
2022/05/12 00:25:22;;;;;;;5.07;1.40;;;17.30;94.10;;;;;;5004724;28;20439;-61
2022/05/12 00:27:48;;;;;;;5.38;1.50;;;17.30;94.30;;;;;;5010770;28;20041;-61
2022/05/12 00:30:14;;;;;;;9.55;2.20;;;17.20;94.80;;;;;;5003850;28;20442;-61
2022/05/12 00:32:42;;;;;;;6.47;1.70;;;17.10;95.00;;;;;;5008825;28;20022;-61
2022/05/12 00:35:10;;;;;;;3.58;1.63;;;17.10;95.30;;;;;;5005817;28;20026;-61
2022/05/12 00:37:35;;;;;;;7.45;1.60;;;17.10;95.40;;;;;;5001936;28;20097;-61
2022/05/12 00:40:01;;;;;;;7.25;1.48;;;17.00;95.70;;;;;;5000301;28;20026;-60
2022/05/12 00:42:26;;;;;;;10.15;2.10;;;16.90;96.10;;;;;;5010687;28;20034;-61
2022/05/12 00:44:52;;;;;;;11.57;1.83;;;16.90;96.70;;;;;;5001538;28;20104;-60
2022/05/12 00:47:18;;;;;;;6.85;1.75;;;16.80;96.90;;;;;;4990038;28;20030;-61
2022/05/12 00:49:45;;;;;;;8.07;2.30;;;16.80;97.30;;;;;;4989739;28;20026;-61
2022/05/12 00:52:23;;;;;;;11.40;1.40;;;16.70;97.50;;;;;;4978005;28;20045;-59
2022/05/12 00:55:04;;;;;;;5.22;1.63;;;16.70;97.80;;;;;;5002139;28;20026;-61
2022/05/12 00:57:39;;;;;;;6.75;1.67;;;16.70;98.00;;;;;;5010396;28;20050;-61
2022/05/12 01:00:08;;;;;;;11.57;2.63;;;16.70;98.30;;;;;;4997754;28;20041;-61
2022/05/12 01:02:36;;;;;;;10.32;1.92;;;16.60;98.30;;;;;;5007675;28;20030;-61
2022/05/12 01:05:04;;;;;;;4.55;1.38;;;16.60;98.60;;;;;;4993332;28;20038;-61
2022/05/12 01:07:29;;;;;;;8.30;1.52;;;16.60;99.00;;;;;;5005899;28;20402;-61
2022/05/12 01:09:55;;;;;;;7.03;1.70;;;16.60;99.30;;;;;;5011126;28;20037;-60
2022/05/12 01:12:21;;;;;;;10.00;1.80;;;16.60;99.40;;;;;;5009892;28;20022;-60
2022/05/12 01:14:47;;;;;;;7.65;1.80;;;16.60;99.70;;;;;;5001648;28;20030;-61
2022/05/12 01:17:14;;;;;;;4.97;1.45;;;16.60;99.90;;;;;;5010382;28;20044;-61
2022/05/12 01:19:41;;;;;;;11.02;1.90;;;16.50;99.90;;;;;;5003645;28;20484;-61
2022/05/12 01:22:25;;;;;;;6.47;1.20;;;16.50;99.90;;;;;;5002058;28;20021;-61
2022/05/12 01:24:51;;;;;;;6.78;1.63;;;16.50;99.90;;;;;;5008518;28;20029;-62
2022/05/12 01:27:19;;;;;;;6.55;1.90;;;16.40;99.90;;;;;;5008040;28;20083;-61
2022/05/12 01:29:58;;;;;;;8.98;1.80;;;16.30;99.90;;;;;;5001899;28;20032;-61
2022/05/12 01:32:26;;;;;;;11.52;1.70;;;16.20;99.90;;;;;;5009674;28;20026;-61
2022/05/12 01:34:55;;;;;;;7.50;1.83;;;16.20;99.90;;;;;;5001814;28;20057;-61
2022/05/12 01:37:21;;;;;;;4.03;1.48;;;16.10;99.90;;;;;;5011177;28;20053;-61
2022/05/12 01:39:47;;;;;;;9.20;2.00;;;16.10;99.90;;;;;;5005495;28;20053;-60
2022/05/12 01:42:13;;;;;;;10.82;1.98;;;16.10;99.90;;;;;;5009714;28;20058;-61
2022/05/12 01:44:40;;;;;;;10.32;1.83;;;16.10;99.90;;;;;;5007177;28;20030;-60
2022/05/12 01:47:06;;;;;;;7.05;1.60;;;16.10;99.90;;;;;;5008436;28;20493;-62
2022/05/12 01:49:32;;;;;;;4.18;2.15;;;16.20;99.90;;;;;;5006926;28;20025;-57
2022/05/12 01:52:00;;;;;;;5.32;2.08;;;16.20;99.90;;;;;;5008006;28;20565;-62
2022/05/12 01:54:27;;;;;;;5.72;2.55;;;16.20;99.90;;;;;;5009812;28;20057;-61
2022/05/12 01:56:52;;;;;;;4.78;2.20;;;16.10;99.90;;;;;;5009946;28;20036;-61
2022/05/12 01:59:18;;;;;;;7.88;3.17;;;16.00;99.90;;;;;;5005732;28;20030;-61
2022/05/12 02:01:47;;;;;;;5.05;2.20;;;16.00;99.90;;;;;;5008518;28;20018;-61
2022/05/12 02:04:14;;;;;;;6.60;2.53;;;16.00;99.90;;;;;;4991204;28;20034;-61
2022/05/12 02:06:40;;;;;;;8.70;2.90;;;15.90;99.90;;;;;;5008381;28;20488;-61
2022/05/12 02:09:06;;;;;;;4.43;2.38;;;15.90;99.90;;;;;;5005399;28;20135;-61
2022/05/12 02:11:32;;;;;;;10.93;2.97;;;15.80;99.90;;;;;;5005947;28;20044;-62
2022/05/12 02:13:58;;;;;;;10.63;2.78;;;15.70;99.90;;;;;;5006332;28;20026;-60
2022/05/12 02:16:25;;;;;;;4.18;2.03;;;15.60;99.90;;;;;;5008539;28;20022;-60
2022/05/12 02:18:52;;;;;;;3.70;1.70;;;15.50;99.90;;;;;;5008811;28;20021;-56
2022/05/12 02:21:18;;;;;;;11.73;2.58;;;15.50;99.90;;;;;;5000961;28;20029;-61
2022/05/12 02:23:43;;;;;;;8.43;2.88;;;15.50;99.90;;;;;;5000353;28;20387;-61
2022/05/12 02:26:09;;;;;;;5.28;2.25;;;15.50;99.90;;;;;;4992357;28;20034;-62
2022/05/12 02:28:35;;;;;;;7.32;2.55;;;15.60;99.90;;;;;;5001023;28;20037;-61
2022/05/12 02:31:01;;;;;;;7.70;2.65;;;15.50;99.90;;;;;;4993970;28;20026;-61
2022/05/12 02:33:27;;;;;;;12.68;2.80;;;15.50;99.90;;;;;;5008167;28;20042;-61
2022/05/12 02:35:52;;;;;;;9.50;2.53;;;15.40;99.90;;;;;;5005177;28;20108;-60
2022/05/12 02:38:18;;;;;;;6.00;2.40;;;15.40;99.90;;;;;;5008480;28;20053;-61
2022/05/12 02:40:44;;;;;;;7.28;3.20;;;15.40;99.90;;;;;;5007795;28;20445;-61
2022/05/12 02:43:24;;;;;;;10.57;2.63;;;15.30;99.90;;;;;;5007357;28;20026;-61
2022/05/12 02:46:02;;;;;;;6.95;3.00;;;15.30;99.90;;;;;;5005716;28;20084;-60
2022/05/12 02:48:31;;;;;;;8.55;2.67;;;15.10;99.90;;;;;;5008531;28;20033;-61
2022/05/12 02:50:57;;;;;;;6.68;3.33;;;15.00;99.90;;;;;;5007748;28;20026;-61
2022/05/12 02:53:24;;;;;;;12.25;3.50;;;14.90;99.90;;;;;;5008500;28;20030;-61
2022/05/12 02:55:50;;;;;;;9.38;3.90;;;14.70;99.90;;;;;;5003126;28;20109;-58
2022/05/12 02:58:15;;;;;;;8.65;3.50;;;14.60;99.90;;;;;;5008222;28;20026;-60
2022/05/12 03:00:41;;;;;;;11.40;4.28;;;14.60;99.90;;;;;;5007771;28;20084;-62
2022/05/12 03:03:07;;;;;;;9.57;3.90;;;14.50;99.90;;;;;;5000150;28;20061;-60
2022/05/12 03:05:37;;;;;;;11.40;4.80;;;14.40;99.90;;;;;;5002833;28;20038;-61
2022/05/12 03:08:04;;;;;;;11.57;4.93;;;14.30;99.90;;;;;;5009581;28;20120;-62
2022/05/12 03:10:32;;;;;;;11.35;4.35;;;14.20;99.90;;;;;;5007469;28;20402;-60
2022/05/12 03:12:58;;;;;;;8.30;4.55;;;14.20;99.90;;;;;;5006865;28;20038;-61
2022/05/12 03:15:24;;;;;;;13.43;4.05;;;14.10;99.90;;;;;;5005953;28;20026;-61
2022/05/12 03:17:50;;;;;;;9.27;5.68;;;14.10;99.90;;;;;;5008000;28;20048;-56
2022/05/12 03:20:19;;;;;;;11.00;5.32;;;14.00;99.90;;;;;;5008035;28;20026;-61
2022/05/12 03:22:45;;;;;;;9.90;5.00;;;14.00;99.90;;;;;;5000889;28;20447;-61
2022/05/12 03:25:12;;;;;;;6.55;4.43;;;14.00;99.90;;;;;;5008357;28;20040;-62
2022/05/12 03:27:38;;;;;;;7.05;4.13;;;13.90;99.90;;;;;;5013576;28;20033;-61
2022/05/12 03:30:07;;;;;;;11.10;4.35;;;13.90;99.90;;;;;;5012610;28;20483;-61
2022/05/12 03:32:33;;;;;;;12.52;3.72;;;13.80;99.90;;;;;;5010740;28;20030;-60
2022/05/12 03:34:59;;;;;;;11.52;3.22;;;13.70;99.90;;;;;;5012670;28;20022;-61
2022/05/12 03:37:24;;;;;;;6.80;2.90;;;13.70;99.90;;;;;;5038322;22;20447;-60
2022/05/12 03:39:50;;;;;;;12.55;3.13;;;13.60;99.90;;;;;;5019479;28;20045;-55
2022/05/12 03:42:18;;;;;;;9.32;3.38;;;13.50;99.90;;;;;;5026177;28;20491;-58
2022/05/12 03:44:47;;;;;;;5.80;2.88;;;13.40;99.90;;;;;;5029005;28;20109;-60
2022/05/12 03:47:25;;;;;;;9.02;2.97;;;13.40;99.90;;;;;;5026987;28;20031;-61
2022/05/12 03:49:57;;;;;;;9.40;3.20;;;13.30;99.90;;;;;;5018091;28;20025;-53
2022/05/12 03:52:23;;;;;;;9.45;3.22;;;13.30;99.90;;;;;;5030098;28;20084;-59
2022/05/12 03:54:49;;;;;;;6.82;3.33;;;13.20;99.90;;;;;;5030795;28;20518;-59
2022/05/12 03:57:16;;;;;;;8.65;2.95;;;13.20;99.90;;;;;;5025590;28;20026;-56
2022/05/12 03:59:42;;;;;;;5.78;3.15;;;13.20;99.90;;;;;;5014405;28;20520;-58
2022/05/12 04:02:10;;;;;;;9.52;3.78;;;13.10;99.90;;;;;;5028961;28;20031;-54
2022/05/12 04:04:35;;;;;;;10.70;3.25;;;13.10;99.90;;;;;;5025365;28;20049;-60
2022/05/12 04:07:01;;;;;;;8.15;3.42;;;13.10;99.90;;;;;;5031071;28;20063;-56
2022/05/12 04:09:28;;;;;;;12.50;3.55;;;13.10;99.90;;;;;;5026662;28;20033;-60
2022/05/12 04:11:53;;;;;;;12.82;3.95;;;13.00;99.90;;;;;;5020587;28;20030;-57
2022/05/12 04:14:19;;;;;;;9.73;3.53;;;13.00;99.90;;;;;;5026691;28;20109;-57
2022/05/12 04:16:45;;;;;;;12.25;4.10;;;13.00;99.90;;;;;;5024654;28;20060;-57
2022/05/12 04:19:11;;;;;;;7.45;3.22;;;13.10;99.90;;;;;;5019548;28;20022;-59
2022/05/12 04:21:37;;;;;;;12.73;3.83;;;13.10;99.90;;;;;;5024127;28;20071;-59
2022/05/12 04:24:07;;;;;;;7.82;3.65;;;13.20;99.90;;;;;;5022819;28;20029;-60
2022/05/12 04:26:34;;;;;;;7.00;3.55;;;13.20;99.90;;;;;;5029198;28;20025;-56
2022/05/12 04:29:00;;;;;;;9.73;3.70;;;13.20;99.90;;;;;;5023840;28;20391;-59
2022/05/12 04:31:26;;;;;;;8.65;4.07;;;13.20;99.90;;;;;;5026882;28;20070;-60
2022/05/12 04:36:36;;;;;;;8.68;4.22;;;13.30;99.90;;;;;;5026787;28;20502;-59
2022/05/12 04:39:05;;;;;;;9.85;4.70;;;13.40;99.90;;;;;;5026497;28;20030;-59
2022/05/12 04:41:31;;;;;;;17.63;3.95;;;13.40;99.90;;;;;;5030800;28;20036;-60
2022/05/12 04:43:58;;;;;;;7.95;3.97;;;13.40;99.90;;;;;;5021367;28;20029;-59
2022/05/12 04:46:25;;;;;;;17.77;4.82;;;13.40;99.90;;;;;;5030197;28;20017;-60
2022/05/12 04:48:51;;;;;;;18.10;6.30;;;13.50;99.90;;;;;;5038114;28;20529;-58
2022/05/12 04:51:17;;;;;;;12.48;3.75;;;13.80;99.90;;;;;;5025540;28;20487;-58
2022/05/12 04:53:42;;;;;;;17.48;4.00;;;14.00;99.90;;;;;;5027207;28;20037;-60
2022/05/12 04:56:08;;;;;;;12.18;4.15;;;14.20;99.90;;;;;;5030221;28;20447;-57
2022/05/12 04:58:34;;;;;;;9.85;3.65;;;14.40;99.90;;;;;;5029263;28;20467;-58
2022/05/12 05:00:59;;;;;;;13.23;3.67;;;14.50;99.90;;;;;;5029315;28;20033;-60
2022/05/12 05:03:25;;;;;;;10.32;3.92;;;15.30;99.90;;;;;;5021234;28;20033;-60
2022/05/12 05:05:51;;;;;;;8.13;3.17;;;16.50;99.90;;;;;;5019102;28;20030;-51
2022/05/12 05:08:22;;;;;;;9.68;4.07;;;17.80;99.60;;;;;;5024180;28;20029;-61
2022/05/12 05:10:49;;;;;;;11.80;3.15;;;18.80;96.00;;;;;;5023706;28;20026;-60
2022/05/12 05:13:18;;;;;;;6.65;2.15;;;19.70;94.10;;;;;;5029752;28;20029;-61
2022/05/12 05:15:44;;;;;;;7.78;2.30;;;20.80;92.10;;;;;;5022724;28;20025;-62
2022/05/12 05:18:13;;;;;;;6.47;2.38;;;21.60;87.80;;;;;;5018826;28;20034;-62
2022/05/12 05:20:39;;;;;;;10.23;2.60;;;22.40;84.40;;;;;;5020616;28;20017;-60
2022/05/12 05:23:05;;;;;;;7.80;2.33;;;23.30;81.80;;;;;;5025499;28;20576;-62
2022/05/12 05:25:33;;;;;;;11.07;2.92;;;23.40;80.00;;;;;;5029526;28;20040;-62
2022/05/12 05:28:00;;;;;;;4.82;1.95;;;23.60;75.70;;;;;;5024397;28;20376;-61
2022/05/12 05:30:26;;;;;;;8.55;2.10;;;23.20;76.90;;;;;;5026885;28;20033;-61
2022/05/12 05:32:53;;;;;;;7.88;2.40;;;23.70;76.20;;;;;;5023343;28;20121;-60
2022/05/12 05:35:19;;;;;;;7.43;2.28;;;24.70;73.40;;;;;;5027200;28;20027;-61
2022/05/12 05:37:46;;;;;;;6.20;2.08;;;24.60;71.90;;;;;;5016806;28;20494;-61
2022/05/12 05:40:14;;;;;;;6.50;2.50;;;24.70;71.20;;;;;;5028023;28;20496;-60
2022/05/12 05:42:44;;;;;;;5.13;1.90;;;24.90;71.70;;;;;;5028880;28;20025;-60
2022/05/12 05:45:12;;;;;;;6.30;2.17;;;25.10;70.50;;;;;;5026220;28;20038;-59
2022/05/12 05:47:39;;;;;;;5.20;2.22;;;25.30;70.90;;;;;;5022744;28;20507;-62
2022/05/12 05:50:08;;;;;;;11.80;2.50;;;25.60;67.80;;;;;;5012074;28;20061;-62
2022/05/12 05:55:18;;;;;;;5.63;1.98;;;25.40;67.70;;;;;;5021172;28;20059;-60
2022/05/12 05:57:43;;;;;;;5.22;2.38;;;25.70;67.30;;;;;;5025865;28;21302;-62
2022/05/12 06:00:12;;;;;;;5.18;2.13;;;26.60;65.40;;;;;;5027288;28;20116;-52
2022/05/12 06:02:38;;;;;;;5.57;2.28;;;26.40;65.50;;;;;;5023905;28;20026;-62
2022/05/12 06:05:05;;;;;;;6.22;2.83;;;26.60;65.50;;;;;;5028177;28;20026;-61
2022/05/12 06:07:31;;;;;;;9.18;2.63;;;26.50;64.70;;;;;;5027257;28;20044;-61
2022/05/12 06:09:57;;;;;;;8.30;2.38;;;26.90;64.00;;;;;;5023460;28;20483;-62
2022/05/12 06:12:23;;;;;;;8.38;2.40;;;26.10;63.60;;;;;;5026918;28;20155;-62
2022/05/12 06:14:48;;;;;;;7.15;2.72;;;26.20;64.80;;;;;;5023645;28;20423;-60
2022/05/12 06:17:14;;;;;;;10.18;2.65;;;25.60;64.40;;;;;;5024635;28;20030;-61
2022/05/12 06:19:41;;;;;;;6.30;2.33;;;25.70;65.40;;;;;;5014862;28;20107;-60
2022/05/12 06:22:06;;;;;;;6.32;2.15;;;26.10;64.20;;;;;;5027486;28;20747;-62
2022/05/12 06:24:32;;;;;;;8.90;2.55;;;26.50;64.00;;;;;;5028064;28;20030;-60
2022/05/12 06:26:58;;;;;;;6.05;2.33;;;26.90;62.80;;;;;;5024134;28;20022;-60
2022/05/12 06:29:23;;;;;;;9.27;3.22;;;26.60;62.60;;;;;;5020646;28;20049;-59
2022/05/12 06:31:49;;;;;;;6.28;2.42;;;26.40;62.50;;;;;;5024515;28;20028;-59
2022/05/12 06:34:15;;;;;;;6.00;2.30;;;26.00;62.60;;;;;;5044216;28;20032;-60
2022/05/12 06:36:41;;;;;;;7.82;3.25;;;26.40;62.30;;;;;;5027565;28;20056;-59
2022/05/12 06:39:07;;;;;;;8.32;3.10;;;26.40;62.20;;;;;;5029760;28;20037;-61
2022/05/12 06:41:33;;;;;;;6.88;3.03;;;27.10;61.10;;;;;;5021786;28;20022;-62
2022/05/12 06:44:01;;;;;;;12.43;3.13;;;26.80;61.90;;;;;;5026522;28;20021;-61
2022/05/12 06:46:26;;;;;;;8.38;3.10;;;27.10;61.60;;;;;;5023096;28;20589;-62
2022/05/12 06:48:52;;;;;;;11.35;3.33;;;27.00;61.50;;;;;;5027840;28;20033;-61
2022/05/12 06:51:18;;;;;;;8.85;3.08;;;27.00;60.60;;;;;;5029691;28;20014;-61
2022/05/12 06:53:45;;;;;;;8.93;2.90;;;26.20;61.80;;;;;;5026701;28;20461;-62
2022/05/12 06:56:10;;;;;;;6.60;2.42;;;27.10;63.20;;;;;;5027407;28;20487;-59
2022/05/12 06:58:37;;;;;;;6.22;2.35;;;25.90;62.10;;;;;;5028092;28;20123;-61
2022/05/12 07:01:03;;;;;;;6.53;3.13;;;24.40;65.00;;;;;;4996581;28;20050;-58
2022/05/12 07:03:29;;;;;;;7.50;3.15;;;22.70;67.40;;;;;;5010315;28;20042;-59
2022/05/12 07:05:57;;;;;;;9.48;2.78;;;21.60;70.00;;;;;;5012321;28;20026;-58
2022/05/12 07:08:23;;;;;;;10.35;3.28;;;21.00;72.90;;;;;;5012436;28;20033;-60
2022/05/12 07:10:48;;;;;;;8.40;3.10;;;21.00;74.40;;;;;;5013408;28;20049;-60
2022/05/12 07:13:19;;;;;;;6.20;2.60;;;22.50;74.50;;;;;;5007077;28;20031;-61
2022/05/12 07:15:47;;;;;;;10.38;2.72;;;24.10;66.70;;;;;;5005843;28;20038;-60
2022/05/12 07:18:14;;;;;;;7.35;2.20;;;24.80;64.70;;;;;;5009390;28;20022;-58
2022/05/12 07:28:53;;;;;;;8.05;3.25;;;22.20;69.90;;;;;;5002522;28;20437;-57
2022/05/12 07:31:18;;;;;;;7.90;2.88;;;21.90;69.80;;;;;;5009273;28;20021;-61
2022/05/12 07:33:45;;;;;;;6.57;2.28;;;22.00;69.90;;;;;;5007141;28;20462;-61
2022/05/12 07:36:21;;;;;;;5.43;1.70;;;23.20;70.30;;;;;;5011394;28;20061;-60
2022/05/12 07:38:47;;;;;;;6.22;2.10;;;24.20;65.60;;;;;;5007680;28;20071;-61
2022/05/12 07:41:14;;;;;;;6.82;1.92;;;25.20;62.70;;;;;;5011451;28;20030;-58
2022/05/12 07:43:42;;;;;;;4.97;2.00;;;25.80;63.00;;;;;;5012142;28;20034;-61
2022/05/12 07:46:08;;;;;;;5.88;1.98;;;26.50;61.20;;;;;;5011439;28;20037;-60
2022/05/12 07:48:35;;;;;;;7.35;2.33;;;27.60;58.10;;;;;;5012366;28;20356;-62
2022/05/12 07:51:01;;;;;;;7.25;2.28;;;26.10;60.10;;;;;;5011759;28;20026;-60
2022/05/12 07:53:27;;;;;;;5.78;2.50;;;24.70;62.70;;;;;;5007804;28;20112;-61
2022/05/12 07:55:53;;;;;;;9.90;2.75;;;23.70;63.60;;;;;;5012201;28;20093;-59
2022/05/12 07:58:18;;;;;;;5.72;2.17;;;23.50;67.30;;;;;;5009173;28;20026;-60
2022/05/12 08:00:45;;;;;;;8.50;2.60;;;24.00;65.60;;;;;;4997004;28;20484;-62
2022/05/12 08:03:11;;;;;;;7.53;1.90;;;24.90;63.70;;;;;;5010934;28;20065;-60
2022/05/12 08:05:37;;;;;;;7.72;2.10;;;24.60;63.60;;;;;;5012488;28;20492;-60
2022/05/12 08:08:04;;;;;;;6.10;2.10;;;23.90;64.70;;;;;;5007220;28;20061;-60
2022/05/12 08:10:30;;;;;;;7.53;1.98;;;23.50;65.80;;;;;;5007218;28;20083;-62
2022/05/12 08:12:56;;;;;;;6.78;2.83;;;24.00;65.50;;;;;;5006752;28;20026;-62
2022/05/12 08:15:25;;;;;;;7.90;2.33;;;24.80;64.20;;;;;;5000027;28;20464;-60
2022/05/12 08:17:54;;;;;;;4.60;1.73;;;24.20;63.50;;;;;;5008188;28;20030;-60
2022/05/12 08:20:20;;;;;;;6.03;2.33;;;24.70;64.40;;;;;;5009508;28;20407;-62
2022/05/12 08:22:46;;;;;;;4.35;1.88;;;24.40;65.50;;;;;;5001359;28;20395;-61
2022/05/12 08:25:12;;;;;;;4.18;1.98;;;24.80;62.70;;;;;;5009839;28;20117;-61
2022/05/12 08:27:39;;;;;;;5.43;1.90;;;24.80;63.20;;;;;;5008030;28;20053;-63
2022/05/12 08:30:07;;;;;;;9.27;2.00;;;26.00;63.10;;;;;;5006893;28;20518;-61
2022/05/12 08:32:33;;;;;;;6.38;1.67;;;26.40;61.70;;;;;;5003736;28;20033;-62
2022/05/12 08:34:59;;;;;;;4.72;1.58;;;26.80;59.10;;;;;;5010321;28;20018;-62
2022/05/12 08:37:25;;;;;;;6.22;1.50;;;26.30;60.20;;;;;;5002355;28;20537;-61
2022/05/12 08:39:51;;;;;;;6.07;1.42;;;25.40;60.50;;;;;;5005425;28;20520;-61
2022/05/12 08:42:28;;;;;;;5.80;1.90;;;24.40;62.40;;;;;;5006637;28;20022;-62
2022/05/12 08:44:55;;;;;;;6.22;1.67;;;23.30;64.80;;;;;;5004200;28;20368;-59
2022/05/12 08:47:34;;;;;;;7.22;1.95;;;23.90;65.50;;;;;;5010578;28;20076;-62
2022/05/12 08:50:00;;;;;;;6.13;1.80;;;24.80;62.80;;;;;;5001718;28;20025;-60
2022/05/12 08:52:41;;;;;;;4.97;1.98;;;25.70;61.70;;;;;;4996918;28;20037;-62
2022/05/12 08:55:19;;;;;;;5.97;1.90;;;26.20;60.20;;;;;;5000901;28;20022;-60
2022/05/12 08:58:08;;;;;;;5.47;1.90;;;25.70;59.50;;;;;;4999523;28;20033;-61
2022/05/12 09:00:40;;;;;;;6.18;2.15;;;25.10;61.60;;;;;;4991409;28;20408;-60
2022/05/12 09:03:26;;;;;;;4.23;1.80;;;23.60;63.70;;;;;;5023886;28;20025;-61
2022/05/12 09:06:09;;;;;;;5.80;2.00;;;23.90;64.70;;;;;;5023329;28;20029;-61
2022/05/12 09:08:53;;;;;;;4.85;1.63;;;24.60;64.30;;;;;;5028292;28;20053;-62
2022/05/12 09:11:24;;;;;;;6.70;2.00;;;25.60;62.00;;;;;;5024764;28;20038;-62
2022/05/12 09:13:53;;;;;;;5.15;2.38;;;25.50;60.50;;;;;;5029507;28;20033;-60
2022/05/12 09:16:20;;;;;;;6.43;2.15;;;25.90;61.30;;;;;;5019275;28;20049;-61
2022/05/12 09:18:46;;;;;;;9.50;2.78;;;25.30;61.20;;;;;;5023775;28;20022;-61
2022/05/12 09:21:27;;;;;;;7.40;2.10;;;25.10;60.80;;;;;;5028351;28;20031;-62
2022/05/12 09:23:53;;;;;;;6.38;2.72;;;24.60;62.60;;;;;;5029371;28;20065;-57
2022/05/12 09:26:44;;;;;;;5.07;2.00;;;24.60;62.30;;;;;;5028451;28;20037;-61
2022/05/12 09:29:26;;;;;;;7.03;2.40;;;25.70;64.40;;;;;;5026860;28;20040;-61
2022/05/12 09:32:03;;;;;;;14.35;2.30;;;26.20;60.00;;;;;;5024151;28;20045;-60
2022/05/12 09:34:33;;;;;;;12.85;2.60;;;26.90;60.30;;;;;;5022946;28;20387;-59
2022/05/12 09:37:26;;;;;;;7.35;2.72;;;26.00;59.40;;;;;;5025369;28;20049;-61
2022/05/12 09:39:57;;;;;;;10.38;2.50;;;25.80;60.90;;;;;;5028759;28;20550;-62
2022/05/12 09:42:29;;;;;;;6.32;2.25;;;25.90;62.30;;;;;;5024757;28;20033;-62
2022/05/12 09:45:06;;;;;;;6.05;2.22;;;27.10;61.30;;;;;;5030106;28;20025;-61
2022/05/12 09:47:33;;;;;;;9.43;2.60;;;26.80;59.60;;;;;;5026069;28;20064;-56
2022/05/12 09:50:16;;;;;;;8.77;2.53;;;26.80;60.00;;;;;;5030222;28;20079;-60
2022/05/12 09:52:43;;;;;;;8.63;2.40;;;25.70;59.90;;;;;;5022739;28;20029;-59
2022/05/12 09:55:41;;;;;;;8.43;2.15;;;25.60;61.60;;;;;;5028759;28;20021;-61
2022/05/12 09:58:28;;;;;;;7.90;2.10;;;25.70;61.10;;;;;;5025982;28;20530;-60
2022/05/12 10:01:15;;;;;;;6.55;2.10;;;25.20;62.60;;;;;;5002849;28;20503;-62
2022/05/12 10:09:28;;;;;;;6.70;2.22;;;23.80;62.40;;;;;;4999551;28;20033;-60
2022/05/12 10:12:06;;;;;;;5.57;2.50;;;23.80;61.60;;;;;;5002567;28;20034;-56
2022/05/12 10:14:42;;;;;;;8.10;2.00;;;23.80;62.80;;;;;;5009131;28;20029;-61
2022/05/12 10:17:19;;;;;;;10.90;2.50;;;24.20;63.40;;;;;;5007412;28;20523;-59
2022/05/12 10:19:46;;;;;;;6.82;2.38;;;23.70;64.10;;;;;;5006443;28;20033;-59
2022/05/12 10:22:47;;;;;;;9.57;2.42;;;23.20;64.50;;;;;;5006950;28;20541;-61
2022/05/12 10:25:26;;;;;;;5.43;2.33;;;23.40;63.60;;;;;;5002520;28;20037;-62
2022/05/12 10:28:02;;;;;;;3.63;2.00;;;24.00;64.80;;;;;;5019632;28;20036;-60
2022/05/12 10:30:33;;;;;;;8.38;2.70;;;24.40;62.50;;;;;;5009869;28;20121;-60
2022/05/12 10:33:19;;;;;;;7.22;2.38;;;24.60;63.00;;;;;;5006673;28;20054;-58
2022/05/12 10:35:55;;;;;;;6.25;2.38;;;24.50;63.20;;;;;;5005909;28;20032;-58
2022/05/12 10:38:49;;;;;;;8.13;2.50;;;24.10;61.70;;;;;;5001615;28;20054;-59
2022/05/12 10:41:22;;;;;;;5.72;2.08;;;23.90;60.50;;;;;;5006352;28;20046;-58
2022/05/12 10:44:00;;;;;;;6.20;2.67;;;24.00;60.90;;;;;;5001725;28;20124;-61
2022/05/12 10:46:50;;;;;;;7.55;2.60;;;24.00;60.20;;;;;;5005739;28;20034;-58
2022/05/12 10:49:29;;;;;;;4.95;2.40;;;24.40;60.40;;;;;;5008261;28;20033;-61
2022/05/12 10:52:28;;;;;;;4.40;2.28;;;24.10;61.80;;;;;;5007752;28;20052;-54
2022/05/12 10:55:30;;;;;;;6.05;2.25;;;23.90;61.90;;;;;;5004763;28;20581;-58
2022/05/12 10:58:20;;;;;;;7.85;2.35;;;24.40;62.20;;;;;;4962910;28;20046;-54
2022/05/12 11:01:20;;;;;;;5.47;1.90;;;23.90;59.90;;;;;;4996744;28;20360;-60
2022/05/12 11:04:00;;;;;;;4.65;1.90;;;23.60;59.80;;;;;;4997640;28;20026;-59
2022/05/12 11:06:50;;;;;;;5.88;1.90;;;23.80;60.50;;;;;;4992594;28;20033;-59
2022/05/12 11:09:43;;;;;;;8.00;3.35;;;23.80;62.00;;;;;;4999525;28;20049;-61
2022/05/12 11:12:39;;;;;;;7.20;2.00;;;23.40;61.70;;;;;;5008202;28;20068;-59
2022/05/12 11:15:13;;;;;;;3.25;1.75;;;23.20;62.40;;;;;;5002892;28;20030;-60
2022/05/12 11:17:38;;;;;;;;;;;23.30;62.10;;;;;;5008643;28;20060;-60
2022/05/12 11:20:32;;;;;;;4.90;2.38;;;23.80;61.70;;;;;;5004494;28;19906;-59
2022/05/12 11:23:35;;;;;;;5.30;2.20;;;24.30;60.90;;;;;;5002324;28;20403;-60
2022/05/12 11:26:11;;;;;;;4.93;1.85;;;24.50;59.90;;;;;;5004867;28;20780;-58
2022/05/12 11:32:18;;;;;;;5.07;1.50;;;24.80;60.30;;;;;;5006971;28;20107;-61
2022/05/12 11:34:51;;;;;;;6.75;1.80;;;24.60;58.30;;;;;;5001651;28;20558;-61
2022/05/12 11:37:40;;;;;;;4.70;1.90;;;24.40;59.70;;;;;;4990748;28;20030;-60
2022/05/12 11:40:09;;;;;;;6.38;2.72;;;24.10;58.80;;;;;;5008211;28;20030;-61
2022/05/12 11:45:47;;;;;;;4.78;1.88;;;23.70;62.50;;;;;;5011390;28;20787;-60
2022/05/12 11:48:25;;;;;;;9.15;2.03;;;23.40;62.80;;;;;;5005796;28;20019;-59
2022/05/12 11:51:02;;;;;;;6.72;1.83;;;23.60;61.90;;;;;;5005974;28;20019;-61
2022/05/12 11:53:48;;;;;;;3.50;1.80;;;24.00;60.20;;;;;;5000772;28;20563;-61
2022/05/12 11:56:30;;;;;;;4.45;1.65;;;24.30;60.70;;;;;;5011801;28;20030;-60
2022/05/12 11:59:30;;;;;;;9.27;1.67;;;24.20;61.30;;;;;;5002269;28;20038;-58
2022/05/12 12:02:00;;;;;;;11.60;2.17;;;23.90;60.50;;;;;;4992532;28;20042;-54
2022/05/12 12:04:49;;;;;;;3.30;1.83;;;23.70;61.10;;;;;;5006361;28;21291;-60
2022/05/12 12:07:38;;;;;;;3.08;1.42;;;23.60;59.10;;;;;;5010788;28;20061;-62
2022/05/12 12:10:30;;;;;;;3.75;1.52;;;23.80;61.90;;;;;;4999575;28;20053;-59
2022/05/12 12:13:03;;;;;;;8.07;1.58;;;23.70;60.10;;;;;;5002855;28;20026;-60
2022/05/12 12:15:35;;;;;;;3.90;1.55;;;23.50;59.60;;;;;;5011253;28;20037;-58
2022/05/12 12:18:24;;;;;;;5.00;1.85;;;23.50;61.30;;;;;;4999791;28;20026;-59
2022/05/12 12:20:53;;;;;;;5.15;1.92;;;23.60;61.80;;;;;;4957753;28;20028;-58
2022/05/12 12:23:27;;;;;;;8.32;2.00;;;23.80;59.70;;;;;;5007005;28;20053;-59
2022/05/12 12:26:26;;;;;;;6.70;1.90;;;24.00;60.70;;;;;;5004861;28;20057;-60
2022/05/12 12:29:08;;;;;;;7.72;2.10;;;23.70;61.00;;;;;;5003500;28;20499;-60
2022/05/12 12:31:37;;;;;;;5.80;1.85;;;24.00;60.10;;;;;;5010792;28;20025;-60
2022/05/12 12:34:21;;;;;;;5.53;1.90;;;24.00;62.00;;;;;;5002874;28;20116;-61
2022/05/12 12:36:47;;;;;;;7.75;1.80;;;24.30;61.90;;;;;;5008262;28;20486;-60
2022/05/12 12:39:33;;;;;;;9.93;2.20;;;24.20;60.80;;;;;;5004648;28;20105;-59
2022/05/12 12:42:18;;;;;;;6.60;2.28;;;24.00;58.70;;;;;;5010504;28;20077;-59
2022/05/12 12:44:49;;;;;;;4.78;2.00;;;24.10;59.00;;;;;;5013595;28;20030;-61
2022/05/12 12:47:26;;;;;;;10.18;2.00;;;23.90;60.10;;;;;;5008417;28;20113;-62
2022/05/12 12:50:18;;;;;;;5.45;1.90;;;24.00;59.90;;;;;;5007119;28;20480;-60
2022/05/12 12:52:47;;;;;;;3.58;2.28;;;23.90;59.00;;;;;;4990528;28;20056;-61
2022/05/12 12:58:28;;;;;;;4.78;1.45;;;23.90;61.60;;;;;;4998408;28;20041;-60
2022/05/12 13:00:59;;;;;;;8.45;1.63;;;23.60;60.90;;;;;;5006955;28;20033;-60
2022/05/12 13:03:30;;;;;;;8.00;1.90;;;23.30;60.40;;;;;;4992845;28;20050;-59
2022/05/12 13:06:26;;;;;;;6.97;1.80;;;23.60;60.40;;;;;;5005408;28;20036;-58
2022/05/12 13:08:58;;;;;;;8.13;2.10;;;23.50;59.70;;;;;;5008701;28;20388;-59
2022/05/12 13:11:23;;;;;;;4.95;1.27;;;23.80;61.00;;;;;;4998933;28;20479;-59
2022/05/12 13:13:53;;;;;;;5.15;1.50;;;23.70;60.50;;;;;;5009204;28;20033;-59
2022/05/12 13:16:22;;;;;;;16.23;2.50;;;23.70;60.00;;;;;;5007572;28;20033;-59
2022/05/12 13:18:50;;;;;;;5.53;1.90;;;23.60;59.20;;;;;;5002300;28;20122;-59
2022/05/12 13:21:34;;;;;;;3.85;1.50;;;23.60;58.80;;;;;;5010770;28;20020;-59
2022/05/12 13:24:02;;;;;;;;;;;23.60;61.50;;;;;;5009277;28;20030;-59
2022/05/12 13:26:28;;;;;;;6.45;2.10;;;23.70;59.80;;;;;;5011105;28;19913;-59
2022/05/12 13:28:54;;;;;;;6.32;1.65;;;23.80;60.90;;;;;;5007148;28;20731;-58
2022/05/12 13:31:31;;;;;;;5.90;1.63;;;24.00;59.60;;;;;;5009449;28;20088;-59
2022/05/12 13:34:11;;;;;;;5.80;2.33;;;23.80;60.30;;;;;;5008276;28;20026;-57